createdAt,value
2022-09-13T00:00:16.468Z,100652.97
2022-09-13T00:02:48.206Z,100655.31
2022-09-13T00:05:20.113Z,100649.88
2022-09-13T00:07:51.575Z,100645.00
2022-09-13T00:10:23.367Z,100650.13
2022-09-13T00:12:54.889Z,100647.91
2022-09-13T00:15:26.663Z,100640.13
2022-09-13T00:17:58.117Z,100637.69
2022-09-13T00:20:30.498Z,100631.63
2022-09-13T00:23:01.949Z,100619.88
2022-09-13T00:25:33.744Z,100623.84
2022-09-13T00:28:05.200Z,100624.56
2022-09-13T00:30:36.997Z,100624.81
2022-09-13T00:33:08.858Z,100614.00
2022-09-13T00:35:40.713Z,100599.25
2022-09-13T00:38:12.169Z,100600.41
2022-09-13T00:40:43.657Z,100591.47
2022-09-13T00:43:15.124Z,100577.53
2022-09-13T00:45:47.014Z,100576.72
2022-09-13T00:48:18.541Z,100573.22
2022-09-13T00:50:50.513Z,100564.03
2022-09-13T00:53:23.054Z,100568.94
2022-09-13T00:55:54.911Z,100567.53
2022-09-13T00:58:26.400Z,100552.75
2022-09-13T01:01:00.220Z,100560.53
2022-09-13T01:03:31.738Z,100551.69
2022-09-13T01:06:03.510Z,100549.25
2022-09-13T01:08:34.985Z,100544.97
2022-09-13T01:11:06.754Z,100550.88
2022-09-13T01:13:38.254Z,100546.94
2022-09-13T01:16:10.095Z,100545.28
2022-09-13T01:18:41.585Z,100540.78
2022-09-13T01:21:13.570Z,100536.69
2022-09-13T01:23:45.085Z,100539.94
2022-09-13T01:26:16.588Z,100540.19
2022-09-13T01:28:48.051Z,100534.03
2022-09-13T01:31:19.862Z,100543.66
2022-09-13T01:33:51.421Z,100545.78
2022-09-13T01:36:24.075Z,100548.44
2022-09-13T01:38:57.398Z,100539.38
2022-09-13T01:41:29.256Z,100527.28
2022-09-13T01:44:00.805Z,100531.50
2022-09-13T01:46:32.770Z,100532.78
2022-09-13T01:49:04.364Z,100535.38
2022-09-13T01:51:36.253Z,100538.53
2022-09-13T01:54:08.087Z,100520.03
2022-09-13T01:56:39.980Z,100510.16
2022-09-13T01:59:11.499Z,100517.13
2022-09-13T02:01:43.293Z,100510.16
2022-09-13T02:04:14.756Z,100506.91
2022-09-13T02:06:46.551Z,100505.28
2022-09-13T02:09:21.318Z,100505.28
2022-09-13T02:11:53.103Z,100507.03
2022-09-13T02:14:24.902Z,100497.06
2022-09-13T02:16:56.348Z,100485.78
2022-09-13T02:19:28.676Z,100488.22
2022-09-13T02:22:00.953Z,100484.75
2022-09-13T02:24:32.798Z,100487.06
2022-09-13T02:27:04.309Z,100488.09
2022-09-13T02:29:36.075Z,100485.66
2022-09-13T02:32:07.535Z,100478.69
2022-09-13T02:34:39.332Z,100469.06
2022-09-13T02:37:10.848Z,100463.72
2022-09-13T02:39:42.634Z,100454.88
2022-09-13T02:42:14.189Z,100456.75
2022-09-13T02:44:46.091Z,100454.06
2022-09-13T02:47:20.936Z,100445.56
2022-09-13T02:49:52.886Z,100443.94
2022-09-13T02:52:24.353Z,100443.94
2022-09-13T02:54:56.076Z,100454.16
2022-09-13T02:57:27.620Z,100455.78
2022-09-13T02:59:59.570Z,100449.63
2022-09-13T03:02:31.092Z,100454.97
2022-09-13T03:05:03.023Z,100437.88
2022-09-13T03:07:34.479Z,100444.63
2022-09-13T03:10:06.525Z,100430.69
2022-09-13T03:12:37.995Z,100416.25
2022-09-13T03:15:09.845Z,100404.75
2022-09-13T03:17:41.308Z,100398.59
2022-09-13T03:20:12.788Z,100404.75
2022-09-13T03:22:44.493Z,100403.34
2022-09-13T03:25:16.265Z,100402.19
2022-09-13T03:27:47.717Z,100397.09
2022-09-13T03:30:19.678Z,100400.50
2022-09-13T03:32:51.173Z,100392.06
2022-09-13T03:35:22.932Z,100399.25
2022-09-13T03:37:54.814Z,100388.00
2022-09-13T03:40:27.079Z,100391.72
2022-09-13T03:42:58.552Z,100396.25
2022-09-13T03:45:30.376Z,100392.78
2022-09-13T03:48:01.890Z,100405.09
2022-09-13T03:50:33.819Z,100399.97
2022-09-13T03:53:05.296Z,100404.03
2022-09-13T03:55:37.282Z,100395.78
2022-09-13T03:58:08.749Z,100390.19
2022-09-13T04:00:41.439Z,100381.34
2022-09-13T04:03:12.964Z,100384.28
2022-09-13T04:05:44.773Z,100375.19
2022-09-13T04:08:16.241Z,100383.78
2022-09-13T04:10:47.716Z,100365.66
2022-09-13T04:13:21.047Z,100363.53
2022-09-13T04:15:53.068Z,100371.66
2022-09-13T04:18:24.543Z,100361.84
2022-09-13T04:20:56.039Z,100364.03
2022-09-13T04:23:27.516Z,100373.47
2022-09-13T04:25:59.304Z,100370.88
2022-09-13T04:28:30.978Z,100366.81
2022-09-13T04:31:02.808Z,100359.38
2022-09-13T04:33:34.300Z,100359.69
2022-09-13T04:36:06.175Z,100350.59
2022-09-13T04:38:37.794Z,100343.06
2022-09-13T04:41:11.186Z,100344.38
2022-09-13T04:43:42.651Z,100343.25
2022-09-13T04:46:14.505Z,100335.22
2022-09-13T04:48:46.079Z,100340.56
2022-09-13T04:51:17.675Z,100342.88
2022-09-13T04:53:49.147Z,100341.94
2022-09-13T04:56:21.609Z,100335.53
2022-09-13T04:58:53.144Z,100337.81
2022-09-13T05:01:27.877Z,100333.09
2022-09-13T05:03:59.674Z,100326.53
2022-09-13T05:06:31.433Z,100316.69
2022-09-13T05:09:03.199Z,100321.56
2022-09-13T05:11:34.694Z,100311.22
2022-09-13T05:14:06.807Z,100328.38
2022-09-13T05:16:38.268Z,100313.63
2022-09-13T05:19:10.171Z,100313.63
2022-09-13T05:21:41.688Z,100312.13
2022-09-13T05:24:13.552Z,100305.41
2022-09-13T05:26:45.039Z,100305.38
2022-09-13T05:29:16.537Z,100308.38
2022-09-13T05:31:47.987Z,100302.69
2022-09-13T05:34:19.816Z,100303.25
2022-09-13T05:36:54.102Z,100291.19
2022-09-13T05:39:33.816Z,100289.63
2022-09-13T05:42:11.115Z,100291.50
2022-09-13T05:44:42.942Z,100292.66
2022-09-13T05:47:14.400Z,100291.59
2022-09-13T05:50:08.934Z,100297.69
2022-09-13T05:52:38.040Z,100301.44
2022-09-13T05:55:10.106Z,100297.88
2022-09-13T05:57:41.578Z,100298.69
2022-09-13T06:00:13.450Z,100309.09
2022-09-13T06:02:44.953Z,100317.66
2022-09-13T06:05:16.801Z,100320.66
2022-09-13T06:07:48.256Z,100317.81
2022-09-13T06:10:20.601Z,100320.47
2022-09-13T06:12:52.104Z,100312.69
2022-09-13T06:15:23.580Z,100313.50
2022-09-13T06:17:55.040Z,100320.97
2022-09-13T06:20:26.941Z,100326.41
2022-09-13T06:22:58.549Z,100325.03
2022-09-13T06:25:30.347Z,100332.75
2022-09-13T06:28:01.813Z,100345.06
2022-09-13T06:30:33.954Z,100340.03
2022-09-13T06:33:05.504Z,100331.44
2022-09-13T06:35:38.223Z,100333.06
2022-09-13T06:38:09.672Z,100330.59
2022-09-13T06:40:41.496Z,100333.09
2022-09-13T06:43:13.009Z,100344.81
2022-09-13T06:45:44.724Z,100341.88
2022-09-13T06:48:16.240Z,100337.06
2022-09-13T06:50:48.148Z,100334.41
2022-09-13T06:53:19.837Z,100324.00
2022-09-13T06:55:51.653Z,100315.47
2022-09-13T06:58:23.120Z,100309.38
2022-09-13T07:00:56.299Z,100307.41
2022-09-13T07:03:27.831Z,100308.38
2022-09-13T07:05:59.658Z,100284.44
2022-09-13T07:08:31.111Z,100282.75
2022-09-13T07:11:03.032Z,100296.81
2022-09-13T07:13:34.642Z,100290.34
2022-09-13T07:16:06.505Z,100297.06
2022-09-13T07:18:38.075Z,100291.56
2022-09-13T07:21:09.977Z,100288.88
2022-09-13T07:23:41.486Z,100286.16
2022-09-13T07:26:13.360Z,100279.44
2022-09-13T07:28:44.838Z,100283.22
2022-09-13T07:31:16.683Z,100287.50
2022-09-13T07:33:48.231Z,100277.56
2022-09-13T07:36:20.279Z,100268.66
2022-09-13T07:38:51.747Z,100273.28
2022-09-13T07:41:23.233Z,100289.16
2022-09-13T07:43:54.701Z,100283.63
2022-09-13T07:46:26.605Z,100271.63
2022-09-13T07:48:58.441Z,100276.72
2022-09-13T07:51:30.088Z,100266.78
2022-09-13T07:54:01.915Z,100270.03
2022-09-13T07:56:33.371Z,100275.44
2022-09-13T07:59:05.420Z,100273.28
2022-09-13T08:01:37.021Z,100284.31
2022-09-13T08:04:09.041Z,100284.06
2022-09-13T08:06:40.536Z,100276.53
2022-09-13T08:09:12.380Z,100279.75
2022-09-13T08:11:43.841Z,100280.06
2022-09-13T08:14:15.820Z,100279.25
2022-09-13T08:16:47.327Z,100274.91
2022-09-13T08:19:19.171Z,100261.19
2022-09-13T08:21:50.629Z,100269.00
2022-09-13T08:24:22.392Z,100264.41
2022-09-13T08:26:53.848Z,100262.00
2022-09-13T08:29:25.812Z,100272.00
2022-09-13T08:31:57.285Z,100281.91
2022-09-13T08:34:29.147Z,100275.06
2022-09-13T08:37:00.763Z,100281.22
2022-09-13T08:39:33.680Z,100289.31
2022-09-13T08:42:05.137Z,100285.56
2022-09-13T08:44:37.037Z,100271.06
2022-09-13T08:47:08.493Z,100286.41
2022-09-13T08:49:40.406Z,100289.97
2022-09-13T08:52:11.919Z,100289.31
2022-09-13T08:54:43.713Z,100277.09
2022-09-13T08:57:15.255Z,100266.53
2022-09-13T08:59:47.925Z,100273.00
2022-09-13T09:02:19.407Z,100260.44
2022-09-13T09:04:51.230Z,100262.41
2022-09-13T09:07:22.699Z,100256.06
2022-09-13T09:09:54.651Z,100256.06
2022-09-13T09:12:26.122Z,100247.88
2022-09-13T09:14:57.895Z,100248.00
2022-09-13T09:17:29.383Z,100239.31
2022-09-13T09:20:01.177Z,100230.78
2022-09-13T09:22:32.628Z,100230.19
2022-09-13T09:25:04.585Z,100248.00
2022-09-13T09:27:36.045Z,100236.81
2022-09-13T09:30:07.887Z,100250.06
2022-09-13T09:32:39.422Z,100255.16
2022-09-13T09:35:11.163Z,100259.41
2022-09-13T09:37:42.629Z,100258.22
2022-09-13T09:40:14.695Z,100253.75
2022-09-13T09:42:46.313Z,100254.44
2022-09-13T09:45:18.225Z,100251.06
2022-09-13T09:47:49.681Z,100250.09
2022-09-13T09:50:21.602Z,100250.16
2022-09-13T09:52:53.641Z,100243.94
2022-09-13T09:55:25.796Z,100250.94
2022-09-13T09:57:57.619Z,100247.06
2022-09-13T10:00:29.974Z,100244.84
2022-09-13T10:03:02.212Z,100242.50
2022-09-13T10:05:33.716Z,100232.06
2022-09-13T10:08:05.532Z,100230.81
2022-09-13T10:10:37.089Z,100225.75
2022-09-13T10:13:09.095Z,100218.72
2022-09-13T10:15:40.679Z,100220.41
2022-09-13T10:18:26.669Z,100231.47
2022-09-13T10:21:04.609Z,100219.50
2022-09-13T10:23:36.409Z,100216.47
2022-09-13T10:26:07.870Z,100215.66
2022-09-13T10:28:39.810Z,100212.94
2022-09-13T10:31:16.298Z,100218.63
2022-09-13T10:33:49.059Z,100217.31
2022-09-13T10:36:41.182Z,100212.19
2022-09-13T10:39:12.363Z,100207.91
2022-09-13T10:41:43.866Z,100202.63
2022-09-13T10:44:15.682Z,100202.88
2022-09-13T10:46:47.128Z,100191.28
2022-09-13T10:49:19.092Z,100197.22
2022-09-13T10:51:50.781Z,100189.44
2022-09-13T10:54:22.782Z,100200.22
2022-09-13T10:56:54.287Z,100198.47
2022-09-13T10:59:26.371Z,100190.81
2022-09-13T11:01:57.901Z,100201.97
2022-09-13T11:04:29.744Z,100197.69
2022-09-13T11:07:02.233Z,100189.50
2022-09-13T11:09:34.226Z,100201.84
2022-09-13T11:12:05.689Z,100201.38
2022-09-13T11:14:37.482Z,100203.28
2022-09-13T11:17:09.405Z,100211.19
2022-09-13T11:19:41.184Z,100206.41
2022-09-13T11:22:13.176Z,100203.22
2022-09-13T11:24:45.721Z,100209.03
2022-09-13T11:27:17.300Z,100199.53
2022-09-13T11:29:49.121Z,100199.72
2022-09-13T11:32:20.584Z,100210.47
2022-09-13T11:34:52.599Z,100202.34
2022-09-13T11:37:24.056Z,100203.16
2022-09-13T11:39:55.981Z,100206.44
2022-09-13T11:42:27.483Z,100206.41
2022-09-13T11:44:59.251Z,100205.78
2022-09-13T11:47:30.946Z,100205.66
2022-09-13T11:50:02.425Z,100212.59
2022-09-13T11:52:33.901Z,100194.56
2022-09-13T11:55:05.681Z,100196.16
2022-09-13T11:57:37.434Z,100196.25
2022-09-13T12:00:09.486Z,100192.72
2022-09-13T12:02:41.332Z,100204.84
2022-09-13T12:05:22.463Z,100193.44
2022-09-13T12:07:55.122Z,100191.97
2022-09-13T12:10:26.590Z,100200.75
2022-09-13T12:12:58.420Z,100183.13
2022-09-13T12:15:29.922Z,100190.03
2022-09-13T12:18:02.041Z,100182.31
2022-09-13T12:20:33.809Z,100190.72
2022-09-13T12:23:05.868Z,100187.06
2022-09-13T12:25:37.533Z,100186.41
2022-09-13T12:28:09.378Z,100190.06
2022-09-13T12:30:40.909Z,100191.03
2022-09-13T12:33:12.774Z,100197.56
2022-09-13T12:35:44.252Z,100199.00
2022-09-13T12:38:16.429Z,100097.06
2022-09-13T12:40:47.913Z,100192.59
2022-09-13T12:43:19.813Z,100193.84
2022-09-13T12:45:51.953Z,100194.44
2022-09-13T12:48:23.876Z,100190.97
2022-09-13T12:50:55.349Z,100175.16
2022-09-13T12:53:27.341Z,100172.66
2022-09-13T12:55:58.810Z,100185.41
2022-09-13T12:58:30.665Z,100186.63
2022-09-13T13:01:02.251Z,100187.63
2022-09-13T13:03:34.318Z,100179.09
2022-09-13T13:06:05.779Z,100175.59
2022-09-13T13:08:37.660Z,100174.78
2022-09-13T13:11:09.179Z,100167.84
2022-09-13T13:13:40.970Z,100160.94
2022-09-13T13:16:12.493Z,100163.97
2022-09-13T13:18:44.606Z,100164.75
2022-09-13T13:21:16.082Z,100160.22
2022-09-13T13:23:48.064Z,100164.66
2022-09-13T13:26:19.582Z,100064.00
2022-09-13T13:28:52.352Z,100160.53
2022-09-13T13:31:23.951Z,100160.34
2022-09-13T13:33:56.185Z,100159.53
2022-09-13T13:36:28.748Z,100147.88
2022-09-13T13:39:01.488Z,100156.50
2022-09-13T13:41:32.999Z,100150.91
2022-09-13T13:44:04.803Z,100074.56
2022-09-13T13:46:36.379Z,100152.13
2022-09-13T13:49:08.226Z,100151.09
2022-09-13T13:51:39.708Z,100158.25
2022-09-13T13:54:11.483Z,100149.38
2022-09-13T13:56:42.996Z,100138.41
2022-09-13T13:59:14.849Z,100140.94
2022-09-13T14:01:46.682Z,100142.56
2022-09-13T14:04:18.210Z,100133.94
2022-09-13T14:06:50.187Z,100134.41
2022-09-13T14:09:21.799Z,100132.59
2022-09-13T14:11:53.592Z,100134.84
2022-09-13T14:14:25.047Z,100137.53
2022-09-13T14:16:57.178Z,100140.44
2022-09-13T14:19:28.860Z,100135.78
2022-09-13T14:22:00.697Z,100130.06
2022-09-13T14:24:32.197Z,100139.81
2022-09-13T14:27:09.116Z,100141.75
2022-09-13T14:29:41.633Z,100131.78
2022-09-13T14:32:13.428Z,100136.63
2022-09-13T14:34:44.931Z,100126.81
2022-09-13T14:37:16.907Z,100121.81
2022-09-13T14:39:48.730Z,100129.16
2022-09-13T14:42:20.561Z,100128.38
2022-09-13T14:44:52.106Z,100138.59
2022-09-13T14:47:24.408Z,100141.69
2022-09-13T14:49:55.905Z,100129.06
2022-09-13T14:52:27.774Z,100123.72
2022-09-13T14:54:59.260Z,100118.25
2022-09-13T14:57:31.223Z,100127.81
2022-09-13T15:00:02.810Z,100124.28
2022-09-13T15:02:34.705Z,100111.88
2022-09-13T15:05:08.049Z,100113.28
2022-09-13T15:07:39.831Z,100108.25
2022-09-13T15:10:11.346Z,100115.47
2022-09-13T15:12:43.119Z,100107.66
2022-09-13T15:15:14.624Z,100109.81
2022-09-13T15:17:46.689Z,100107.34
2022-09-13T15:20:18.220Z,100106.22
2022-09-13T15:22:54.067Z,100093.88
2022-09-13T15:25:25.968Z,100094.50
2022-09-13T15:27:57.833Z,100100.53
2022-09-13T15:30:29.406Z,100097.31
2022-09-13T15:33:01.576Z,100097.00
2022-09-13T15:35:33.088Z,100098.00
2022-09-13T15:38:05.012Z,100102.72
2022-09-13T15:40:36.585Z,100096.63
2022-09-13T15:43:08.579Z,100094.66
2022-09-13T15:45:40.141Z,100100.13
2022-09-13T15:48:12.017Z,100097.13
2022-09-13T15:50:43.487Z,100100.44
2022-09-13T15:53:15.345Z,100104.97
2022-09-13T15:55:47.016Z,100095.84
2022-09-13T15:58:18.759Z,100100.19
2022-09-13T16:00:50.863Z,100106.91
2022-09-13T16:03:22.471Z,100105.28
2022-09-13T16:05:53.992Z,100107.34
2022-09-13T16:08:25.457Z,100098.81
2022-09-13T16:10:57.235Z,100096.28
2022-09-13T16:13:28.687Z,100097.50
2022-09-13T16:16:02.074Z,100100.78
2022-09-13T16:18:33.941Z,100102.19
2022-09-13T16:21:05.758Z,100094.72
2022-09-13T16:23:37.248Z,100088.09
2022-09-13T16:26:09.026Z,100084.66
2022-09-13T16:28:40.519Z,100081.50
2022-09-13T16:31:12.444Z,100077.56
2022-09-13T16:33:43.949Z,100082.97
2022-09-13T16:36:15.809Z,100085.69
2022-09-13T16:38:47.273Z,100079.25
2022-09-13T16:41:19.015Z,100085.25
2022-09-13T16:43:50.478Z,100080.94
2022-09-13T16:46:22.326Z,100074.78
2022-09-13T16:48:56.885Z,100080.47
2022-09-13T16:51:28.700Z,100079.75
2022-09-13T16:54:00.531Z,100079.03
2022-09-13T16:56:32.434Z,100084.72
2022-09-13T16:59:03.948Z,100088.28
2022-09-13T17:01:35.991Z,100079.16
2022-09-13T17:04:08.153Z,100083.56
2022-09-13T17:06:39.960Z,100076.88
2022-09-13T17:09:11.714Z,100079.94
2022-09-13T17:11:43.706Z,100080.59
2022-09-13T17:14:17.555Z,100087.16
2022-09-13T17:16:49.598Z,100079.13
2022-09-13T17:19:21.159Z,100087.03
2022-09-13T17:21:53.110Z,100088.94
2022-09-13T17:24:24.706Z,100092.00
2022-09-13T17:26:59.568Z,100093.44
2022-09-13T17:29:31.518Z,100093.50
2022-09-13T17:32:03.660Z,100095.72
2022-09-13T17:34:35.228Z,100095.53
2022-09-13T17:37:07.578Z,100102.13
2022-09-13T17:39:39.148Z,100096.47
2022-09-13T17:42:11.032Z,100101.41
2022-09-13T17:44:42.904Z,100103.63
2022-09-13T17:47:14.401Z,100100.16
2022-09-13T17:49:47.555Z,100097.50
2022-09-13T17:52:19.078Z,100098.09
2022-09-13T17:54:51.110Z,100094.63
2022-09-13T17:57:22.631Z,100098.16
2022-09-13T17:59:54.942Z,100099.25
2022-09-13T18:02:27.886Z,100098.47
2022-09-13T18:05:04.654Z,100093.13
2022-09-13T18:07:37.394Z,100101.50
2022-09-13T18:10:24.916Z,100092.69
2022-09-13T18:13:01.072Z,100099.44
2022-09-13T18:15:33.037Z,100095.38
2022-09-13T18:18:04.625Z,100101.56
2022-09-13T18:20:40.541Z,100102.94
2022-09-13T18:23:12.334Z,100093.53
2022-09-13T18:25:44.472Z,100095.97
2022-09-13T18:28:15.999Z,100101.38
2022-09-13T18:30:47.878Z,100103.53
2022-09-13T18:33:21.026Z,100101.16
2022-09-13T18:35:52.902Z,100103.84
2022-09-13T18:38:24.411Z,100099.53
2022-09-13T18:40:56.445Z,100104.97
2022-09-13T18:43:28.024Z,100101.50
2022-09-13T18:46:00.189Z,100105.81
2022-09-13T18:48:32.815Z,100108.25
2022-09-13T18:51:05.103Z,100111.25
2022-09-13T18:53:36.620Z,100114.78
2022-09-13T18:56:08.475Z,100116.69
2022-09-13T18:58:40.000Z,100121.25
2022-09-13T19:01:13.017Z,100120.97
2022-09-13T19:03:44.750Z,100118.03
2022-09-13T19:06:16.633Z,100123.69
2022-09-13T19:08:48.298Z,100118.06
2022-09-13T19:11:44.626Z,100122.09
2022-09-13T19:14:12.799Z,100130.75
2022-09-13T19:16:45.104Z,100127.22
2022-09-13T19:19:16.696Z,100121.31
2022-09-13T19:21:48.676Z,100129.94
2022-09-13T19:24:21.379Z,100131.25
2022-09-13T19:26:53.228Z,100126.44
2022-09-13T19:29:25.948Z,100124.81
2022-09-13T19:31:57.735Z,100125.63
2022-09-13T19:34:29.636Z,100120.25
2022-09-13T19:37:01.168Z,100130.47
2022-09-13T19:39:33.075Z,100138.28
2022-09-13T19:42:04.576Z,100142.06
2022-09-13T19:44:36.440Z,100130.50
2022-09-13T19:47:53.245Z,100122.16
2022-09-13T19:50:01.340Z,100135.88
2022-09-13T19:52:32.859Z,100134.00
2022-09-13T19:55:04.682Z,100130.78
2022-09-13T19:57:36.181Z,100132.91
2022-09-13T20:00:08.109Z,100128.06
2022-09-13T20:02:39.615Z,100128.06
2022-09-13T20:05:11.858Z,100131.03
2022-09-13T20:07:43.404Z,100128.63
2022-09-13T20:10:15.283Z,100130.75
2022-09-13T20:12:48.147Z,100134.00
2022-09-13T20:15:20.385Z,100129.41
2022-09-13T20:17:51.886Z,100133.44
2022-09-13T20:20:25.187Z,100140.44
2022-09-13T20:22:56.686Z,100136.94
2022-09-13T20:25:28.680Z,100131.84
2022-09-13T20:28:00.195Z,100136.09
2022-09-13T20:30:32.163Z,100135.28
2022-09-13T20:33:03.690Z,100133.91
2022-09-13T20:35:35.557Z,100122.38
2022-09-13T20:38:07.094Z,100124.50
2022-09-13T20:40:38.870Z,100122.09
2022-09-13T20:43:10.449Z,100124.25
2022-09-13T20:45:42.373Z,100123.97
2022-09-13T20:48:14.161Z,100118.31
2022-09-13T20:50:45.967Z,100122.63
2022-09-13T20:53:17.458Z,100124.75
2022-09-13T20:55:49.286Z,100117.19
2022-09-13T20:58:21.027Z,100119.31
2022-09-13T21:00:53.016Z,100124.69
2022-09-13T21:03:24.805Z,100120.13
2022-09-13T21:05:56.790Z,100118.75
2022-09-13T21:08:43.495Z,100114.72
2022-09-13T21:11:15.530Z,100123.03
2022-09-13T21:13:47.441Z,100118.19
2022-09-13T21:16:19.479Z,100123.28
2022-09-13T21:18:51.059Z,100118.72
2022-09-13T21:21:23.814Z,100119.53
2022-09-13T21:23:56.633Z,100123.28
2022-09-13T21:26:28.594Z,100123.28
2022-09-13T21:29:00.714Z,100127.03
2022-09-13T21:31:32.699Z,100117.59
2022-09-13T21:34:04.259Z,100117.31
2022-09-13T21:36:36.145Z,100128.84
2022-09-13T21:39:07.631Z,100129.38
2022-09-13T21:41:39.503Z,100138.47
2022-09-13T21:44:11.002Z,100138.75
2022-09-13T21:46:42.871Z,100145.19
2022-09-13T21:49:14.403Z,100147.56
2022-09-13T21:51:46.781Z,100148.91
2022-09-13T21:54:18.318Z,100153.47
2022-09-13T21:56:50.317Z,100157.75
2022-09-13T21:59:21.900Z,100157.44
2022-09-13T22:01:54.455Z,100157.97
2022-09-13T22:04:27.088Z,100154.47
2022-09-13T22:06:58.895Z,100163.81
2022-09-13T22:09:30.404Z,100158.69
2022-09-13T22:12:02.335Z,100160.50
2022-09-13T22:14:34.086Z,100157.53
2022-09-13T22:17:05.958Z,100154.56
2022-09-13T22:19:37.546Z,100148.91
2022-09-13T22:22:09.522Z,100144.88
2022-09-13T22:24:41.055Z,100153.16
2022-09-13T22:27:12.867Z,100156.63
2022-09-13T22:29:44.362Z,100146.41
2022-09-13T22:32:16.593Z,100148.78
2022-09-13T22:34:48.698Z,100156.53
2022-09-13T22:37:20.698Z,100164.81
2022-09-13T22:39:52.855Z,100169.88
2022-09-13T22:42:25.055Z,100168.78
2022-09-13T22:44:56.568Z,100171.72
2022-09-13T22:47:28.467Z,100167.69
2022-09-13T22:49:59.983Z,100158.03
2022-09-13T22:52:31.757Z,100160.72
2022-09-13T22:55:03.276Z,100152.66
2022-09-13T22:57:35.096Z,100159.91
2022-09-13T23:00:06.592Z,100158.28
2022-09-13T23:02:38.479Z,100157.19
2022-09-13T23:05:10.003Z,100154.75
2022-09-13T23:07:42.126Z,100152.59
2022-09-13T23:10:13.655Z,100163.53
2022-09-13T23:12:46.516Z,100163.69
2022-09-13T23:15:19.943Z,100159.41
2022-09-13T23:17:52.084Z,100162.34
2022-09-13T23:20:23.588Z,100165.28
2022-09-13T23:22:55.485Z,100164.97
2022-09-13T23:25:26.993Z,100157.44
2022-09-13T23:27:58.784Z,100161.13
2022-09-13T23:30:30.275Z,100169.16
2022-09-13T23:33:02.200Z,100163.00
2022-09-13T23:35:33.704Z,100162.50
2022-09-13T23:38:06.417Z,100162.78
2022-09-13T23:40:37.914Z,100160.94
2022-09-13T23:43:09.692Z,100163.06
2022-09-13T23:45:41.364Z,100164.88
2022-09-13T23:48:13.248Z,100164.06
2022-09-13T23:50:45.367Z,100158.72
2022-09-13T23:53:17.433Z,100156.28
2022-09-13T23:55:48.922Z,100158.41
2022-09-13T23:58:20.740Z,100151.19
